Glendon, North Carolina
Current Conditions -  °F | °C
As of 10:15 AM on Thursday 18 Dec 2014 (Local Time) from K5W8 Reporting Station
Clear Clear  
Wind Chill: 39°   Ceiling: Unl
Heat Index: 42°   Visibility: 10mi
Dew Point: 26°   Wind: 5mph
Humidity: 54%   Direction: 330°NNW
Pressure: 30.18"   Gusts: NA
Location:  35.4616°N, 79.5721°W
Report Text: K5W8 181515Z AUTO 33004KT 10SM CLR 06/M03 A3018 RMK AO2 T00551031
Loading
Personal Weather Stations






























Interactive Weather Map New forecast layout! Learn more

10-Day Weather Forecast

Advertisements
Track Severe Weather on mobile